createdAt,value
2018-09-06T00:00:20.891Z,14.20
2018-09-06T00:03:23.091Z,14.20
2018-09-06T00:06:25.325Z,14.17
2018-09-06T00:09:27.639Z,14.13
2018-09-06T00:12:29.887Z,14.10
2018-09-06T00:15:32.212Z,14.08
2018-09-06T00:18:34.552Z,14.02
2018-09-06T00:21:36.790Z,13.98
2018-09-06T00:24:39.083Z,13.96
2018-09-06T00:27:41.418Z,14.00
2018-09-06T00:30:43.632Z,14.00
2018-09-06T00:33:45.894Z,13.96
2018-09-06T00:36:48.221Z,13.90
2018-09-06T00:39:50.402Z,13.87
2018-09-06T00:42:52.665Z,13.85
2018-09-06T00:45:54.949Z,13.85
2018-09-06T00:48:57.162Z,13.85
2018-09-06T00:51:59.590Z,13.73
2018-09-06T00:55:01.902Z,13.67
2018-09-06T00:58:04.194Z,13.65
2018-09-06T01:01:06.438Z,13.62
2018-09-06T01:04:08.641Z,13.58
2018-09-06T01:07:10.950Z,13.60
2018-09-06T01:10:13.901Z,13.70
2018-09-06T01:13:16.124Z,13.72
2018-09-06T01:16:18.536Z,13.52
2018-09-06T01:19:20.899Z,13.30
2018-09-06T01:22:23.435Z,13.24
2018-09-06T01:25:30.377Z,13.26
2018-09-06T01:28:32.693Z,13.21
2018-09-06T01:31:34.968Z,13.13
2018-09-06T01:34:37.256Z,13.16
2018-09-06T01:37:39.527Z,13.17
2018-09-06T01:40:41.863Z,13.18
2018-09-06T01:43:44.277Z,13.18
2018-09-06T01:46:46.474Z,13.10
2018-09-06T01:49:48.669Z,13.11
2018-09-06T01:52:50.887Z,13.18
2018-09-06T01:55:53.172Z,13.27
2018-09-06T01:58:55.675Z,13.37
2018-09-06T02:01:58.122Z,13.50
2018-09-06T02:05:00.386Z,13.58
2018-09-06T02:08:03.022Z,13.63
2018-09-06T02:11:05.247Z,13.66
2018-09-06T02:14:07.593Z,13.66
2018-09-06T02:17:09.946Z,13.63
2018-09-06T02:20:12.160Z,13.65
2018-09-06T02:23:14.530Z,13.69
2018-09-06T02:26:16.847Z,13.77
2018-09-06T02:29:19.150Z,13.84
2018-09-06T02:32:21.383Z,13.91
2018-09-06T02:35:23.705Z,13.98
2018-09-06T02:38:25.917Z,14.04
2018-09-06T02:41:28.234Z,14.04
2018-09-06T02:44:30.507Z,14.05
2018-09-06T02:47:37.666Z,14.05
2018-09-06T02:50:45.405Z,14.10
2018-09-06T02:53:47.857Z,14.10
2018-09-06T02:56:50.202Z,14.17
2018-09-06T02:59:52.559Z,14.20
2018-09-06T03:02:54.826Z,14.25
2018-09-06T03:05:57.200Z,14.34
2018-09-06T03:08:59.510Z,14.29
2018-09-06T03:12:03.340Z,14.00
2018-09-06T03:15:05.602Z,13.86
2018-09-06T03:18:07.883Z,13.85
2018-09-06T03:21:10.093Z,13.75
2018-09-06T03:24:12.400Z,13.67
2018-09-06T03:27:14.670Z,13.55
2018-09-06T03:30:17.173Z,13.49
2018-09-06T03:33:19.501Z,13.55
2018-09-06T03:36:21.824Z,13.63
2018-09-06T03:39:24.074Z,13.78
2018-09-06T03:42:26.329Z,13.96
2018-09-06T03:45:28.663Z,14.11
2018-09-06T03:48:31.116Z,14.20
2018-09-06T03:51:33.429Z,14.26
2018-09-06T03:54:35.797Z,14.34
2018-09-06T03:57:38.157Z,14.42
2018-09-06T04:00:41.121Z,14.49
2018-09-06T04:03:43.491Z,14.56
2018-09-06T04:06:46.277Z,14.64
2018-09-06T04:09:48.555Z,14.74
2018-09-06T04:12:50.827Z,14.87
2018-09-06T04:15:53.103Z,14.96
2018-09-06T04:18:55.492Z,15.07
2018-09-06T04:21:57.700Z,15.17
2018-09-06T04:25:00.062Z,15.23
2018-09-06T04:28:02.296Z,15.22
2018-09-06T04:31:04.669Z,15.15
2018-09-06T04:34:07.012Z,15.05
2018-09-06T04:37:09.191Z,14.94
2018-09-06T04:40:11.365Z,14.85
2018-09-06T04:44:38.312Z,14.70
2018-09-06T04:47:40.582Z,14.59
2018-09-06T04:50:42.853Z,14.55
2018-09-06T04:53:45.112Z,14.54
2018-09-06T04:56:47.559Z,14.60
2018-09-06T04:59:49.905Z,14.72
2018-09-06T05:02:52.136Z,14.87
2018-09-06T05:05:54.516Z,15.06
2018-09-06T05:08:56.821Z,15.31
2018-09-06T05:11:59.058Z,15.59
2018-09-06T05:15:01.314Z,15.87
2018-09-06T05:18:04.112Z,16.11
2018-09-06T05:21:06.418Z,16.43
2018-09-06T05:24:08.798Z,16.58
2018-09-06T05:27:11.218Z,16.62
2018-09-06T05:30:13.536Z,17.18
2018-09-06T05:33:15.895Z,17.88
2018-09-06T05:36:18.425Z,18.26
2018-09-06T05:39:20.586Z,19.01
2018-09-06T05:42:22.889Z,19.33
2018-09-06T05:45:25.285Z,19.21
2018-09-06T05:48:27.634Z,18.93
2018-09-06T05:51:29.970Z,19.31
2018-09-06T05:54:32.378Z,19.30
2018-09-06T05:57:34.717Z,19.23
2018-09-06T06:00:42.682Z,19.53
2018-09-06T06:03:45.003Z,19.31
2018-09-06T06:06:47.408Z,18.87
2018-09-06T06:09:49.719Z,18.46
2018-09-06T06:12:52.206Z,18.18
2018-09-06T06:15:54.483Z,17.89
2018-09-06T06:18:56.739Z,17.51
2018-09-06T06:21:59.165Z,16.91
2018-09-06T06:25:01.489Z,16.53
2018-09-06T06:28:03.967Z,16.23
2018-09-06T06:31:06.286Z,16.25
2018-09-06T06:34:08.596Z,16.32
2018-09-06T06:37:10.866Z,16.24
2018-09-06T06:40:13.230Z,16.25
2018-09-06T06:43:15.461Z,16.35
2018-09-06T06:46:17.918Z,16.58
2018-09-06T06:49:20.078Z,16.52
2018-09-06T06:52:22.281Z,16.53
2018-09-06T06:55:24.557Z,16.48
2018-09-06T06:58:26.857Z,16.73
2018-09-06T07:01:29.133Z,16.71
2018-09-06T07:04:31.486Z,16.67
2018-09-06T07:07:33.635Z,16.72
2018-09-06T07:10:36.154Z,16.74
2018-09-06T07:13:38.289Z,16.88
2018-09-06T07:16:40.536Z,17.04
2018-09-06T07:19:42.692Z,17.20
2018-09-06T07:22:44.919Z,17.56
2018-09-06T07:25:47.234Z,18.24
2018-09-06T07:28:49.521Z,18.87
2018-09-06T07:31:51.816Z,18.91
2018-09-06T07:34:54.274Z,18.91
2018-09-06T07:37:56.485Z,18.46
2018-09-06T07:40:58.805Z,18.81
2018-09-06T07:44:01.070Z,19.13
2018-09-06T07:47:03.354Z,19.54
2018-09-06T07:50:05.671Z,19.87
2018-09-06T07:53:07.915Z,19.85
2018-09-06T07:56:10.290Z,19.88
2018-09-06T07:59:12.618Z,19.83
2018-09-06T08:02:14.944Z,20.24
2018-09-06T08:05:17.255Z,20.25
2018-09-06T08:08:19.574Z,19.99
2018-09-06T08:11:21.929Z,19.72
2018-09-06T08:14:24.209Z,19.60
2018-09-06T08:17:26.494Z,19.52
2018-09-06T08:20:28.771Z,19.59
2018-09-06T08:26:26.135Z,20.27
2018-09-06T08:29:28.410Z,20.34
2018-09-06T08:32:30.736Z,20.05
2018-09-06T08:35:33.072Z,20.41
2018-09-06T08:38:35.553Z,20.67
2018-09-06T08:41:38.638Z,21.51
2018-09-06T08:44:40.982Z,20.88
2018-09-06T08:47:43.220Z,20.75
2018-09-06T08:50:45.495Z,20.82
2018-09-06T08:53:47.778Z,20.83
2018-09-06T08:56:50.064Z,20.63
2018-09-06T08:59:52.313Z,20.86
2018-09-06T09:02:54.815Z,20.93
2018-09-06T09:05:57.056Z,21.74
2018-09-06T09:08:59.341Z,22.74
2018-09-06T09:12:01.383Z,23.44
2018-09-06T09:15:03.693Z,23.91
2018-09-06T09:18:05.976Z,23.70
2018-09-06T09:21:08.294Z,23.30
2018-09-06T09:24:10.645Z,23.15
2018-09-06T09:27:13.104Z,22.23
2018-09-06T09:30:15.475Z,22.05
2018-09-06T09:33:17.829Z,22.18
2018-09-06T09:36:20.127Z,22.63
2018-09-06T09:39:22.400Z,22.57
2018-09-06T09:42:24.789Z,22.32
2018-09-06T09:45:27.143Z,22.55
2018-09-06T09:48:29.383Z,23.24
2018-09-06T09:51:31.720Z,23.74
2018-09-06T09:54:34.070Z,24.29
2018-09-06T09:57:36.673Z,24.30
2018-09-06T10:00:40.439Z,24.38
2018-09-06T10:03:48.503Z,24.21
2018-09-06T10:06:56.459Z,24.49
2018-09-06T10:09:58.733Z,25.24
2018-09-06T10:13:01.035Z,25.02
2018-09-06T10:16:04.406Z,25.13
2018-09-06T10:19:06.745Z,24.70
2018-09-06T10:22:09.017Z,24.50
2018-09-06T10:25:11.311Z,25.73
2018-09-06T10:28:13.701Z,25.61
2018-09-06T10:31:15.888Z,26.07
2018-09-06T10:34:18.085Z,26.70
2018-09-06T10:37:20.332Z,25.99
2018-09-06T10:40:22.907Z,24.57
2018-09-06T10:43:25.251Z,24.03
2018-09-06T10:46:27.573Z,23.08
2018-09-06T10:49:29.990Z,23.64
2018-09-06T10:52:32.274Z,23.99
2018-09-06T10:55:34.514Z,24.11
2018-09-06T10:58:36.865Z,24.73
2018-09-06T11:01:39.036Z,24.86
2018-09-06T11:04:42.050Z,25.44
2018-09-06T11:07:44.386Z,25.62
2018-09-06T11:10:46.834Z,25.31
2018-09-06T11:13:49.058Z,25.51
2018-09-06T11:16:51.309Z,24.96
2018-09-06T11:19:53.490Z,25.30
2018-09-06T11:22:55.741Z,25.64
2018-09-06T11:25:58.132Z,25.75
2018-09-06T11:29:00.666Z,25.06
2018-09-06T11:32:02.891Z,25.24
2018-09-06T11:35:05.216Z,25.59
2018-09-06T11:38:07.439Z,25.53
2018-09-06T11:41:09.877Z,25.18
2018-09-06T11:44:12.166Z,25.34
2018-09-06T11:47:15.536Z,26.04
2018-09-06T11:50:17.776Z,26.40
2018-09-06T11:53:20.462Z,26.02
2018-09-06T11:56:22.761Z,25.12
2018-09-06T11:59:25.071Z,24.93
2018-09-06T12:02:27.471Z,24.59
2018-09-06T12:05:29.840Z,24.83
2018-09-06T12:08:32.386Z,24.77
2018-09-06T12:11:35.040Z,24.48
2018-09-06T12:14:37.411Z,24.10
2018-09-06T12:17:39.797Z,24.31
2018-09-06T12:20:42.055Z,23.97
2018-09-06T12:23:44.443Z,24.02
2018-09-06T12:26:46.983Z,23.83
2018-09-06T12:29:49.328Z,24.05
2018-09-06T12:32:51.682Z,23.91
2018-09-06T12:35:54.119Z,23.36
2018-09-06T12:38:57.512Z,23.62
2018-09-06T12:41:59.955Z,23.26
2018-09-06T12:45:02.536Z,23.25
2018-09-06T12:48:05.269Z,23.30
2018-09-06T12:54:09.356Z,22.81
2018-09-06T12:57:11.719Z,22.68
2018-09-06T13:00:14.074Z,22.81
2018-09-06T13:03:16.403Z,22.90
2018-09-06T13:06:18.928Z,23.13
2018-09-06T13:09:21.292Z,23.12
2018-09-06T13:12:23.681Z,23.16
2018-09-06T13:15:26.073Z,23.08
2018-09-06T13:18:28.412Z,23.21
2018-09-06T13:21:30.815Z,23.23
2018-09-06T13:24:33.172Z,23.18
2018-09-06T13:27:35.567Z,23.58
2018-09-06T13:30:38.128Z,24.12
2018-09-06T13:33:40.557Z,24.39
2018-09-06T13:36:42.928Z,24.23
2018-09-06T13:39:45.401Z,24.24
2018-09-06T13:42:47.682Z,24.36
2018-09-06T13:45:50.021Z,24.39
2018-09-06T13:48:52.444Z,24.51
2018-09-06T13:51:54.785Z,24.47
2018-09-06T13:54:57.407Z,24.47
2018-09-06T13:57:59.962Z,24.49
2018-09-06T14:01:02.354Z,24.56
2018-09-06T14:04:04.775Z,24.84
2018-09-06T14:07:07.239Z,25.17
2018-09-06T14:10:09.688Z,26.04
2018-09-06T14:13:11.940Z,26.43
2018-09-06T14:16:14.328Z,26.49
2018-09-06T14:19:16.829Z,25.64
2018-09-06T14:22:19.317Z,25.62
2018-09-06T14:25:21.639Z,25.33
2018-09-06T14:28:23.904Z,24.99
2018-09-06T14:31:26.173Z,25.25
2018-09-06T14:34:28.453Z,25.46
2018-09-06T14:37:30.769Z,25.36
2018-09-06T14:47:23.767Z,24.35
2018-09-06T14:50:26.352Z,24.56
2018-09-06T14:53:28.804Z,24.37
2018-09-06T14:56:31.119Z,23.82
2018-09-06T14:59:33.417Z,23.59
2018-09-06T15:02:35.771Z,23.32
2018-09-06T15:05:38.182Z,23.20
2018-09-06T15:08:40.545Z,23.05
2018-09-06T15:11:42.937Z,22.97
2018-09-06T15:14:45.237Z,22.69
2018-09-06T15:17:47.624Z,22.57
2018-09-06T15:20:50.008Z,22.43
2018-09-06T15:23:52.323Z,22.32
2018-09-06T15:26:54.621Z,22.12
2018-09-06T15:29:56.887Z,22.07
2018-09-06T15:32:59.094Z,21.93
2018-09-06T15:36:01.488Z,21.88
2018-09-06T15:39:05.499Z,21.72
2018-09-06T15:42:08.192Z,21.68
2018-09-06T15:45:10.564Z,21.70
2018-09-06T15:48:12.838Z,21.74
2018-09-06T15:51:15.193Z,21.71
2018-09-06T15:54:17.505Z,21.68
2018-09-06T15:57:19.799Z,21.65
2018-09-06T16:00:22.087Z,21.64
2018-09-06T16:03:24.439Z,21.69
2018-09-06T16:06:26.974Z,21.69
2018-09-06T16:09:29.327Z,21.77
2018-09-06T16:12:31.704Z,21.65
2018-09-06T16:15:34.031Z,21.58
2018-09-06T16:18:36.325Z,21.67
2018-09-06T16:21:38.510Z,21.70
2018-09-06T16:24:40.856Z,21.63
2018-09-06T16:27:43.460Z,21.54
2018-09-06T16:30:46.122Z,21.42
2018-09-06T16:33:48.418Z,21.41
2018-09-06T16:36:50.842Z,21.32
2018-09-06T16:39:53.413Z,21.25
2018-09-06T16:42:55.723Z,21.11
2018-09-06T16:45:58.201Z,20.98
2018-09-06T16:49:00.566Z,20.92
2018-09-06T16:52:02.962Z,20.92
2018-09-06T16:55:05.761Z,20.90
2018-09-06T16:58:08.005Z,20.86
2018-09-06T17:01:11.035Z,20.81
2018-09-06T17:04:13.272Z,20.76
2018-09-06T17:07:15.776Z,20.73
2018-09-06T17:10:18.131Z,20.73
2018-09-06T17:13:20.497Z,20.71
2018-09-06T17:16:22.853Z,20.62
2018-09-06T17:19:25.250Z,20.53
2018-09-06T17:22:27.717Z,20.46
2018-09-06T17:25:30.034Z,20.46
2018-09-06T17:28:32.360Z,20.37
2018-09-06T17:31:34.575Z,20.29
2018-09-06T17:34:36.809Z,20.25
2018-09-06T17:37:39.190Z,20.18
2018-09-06T17:40:41.393Z,20.20
2018-09-06T17:43:44.858Z,20.07
2018-09-06T17:46:48.235Z,20.04
2018-09-06T17:49:50.900Z,20.03
2018-09-06T17:52:53.301Z,19.93
2018-09-06T17:55:55.497Z,19.78
2018-09-06T17:58:57.893Z,19.69
2018-09-06T18:02:00.215Z,19.59
2018-09-06T18:05:02.540Z,19.55
2018-09-06T18:08:05.287Z,19.53
2018-09-06T18:11:08.034Z,19.50
2018-09-06T18:14:10.544Z,19.47
2018-09-06T18:17:12.927Z,19.46
2018-09-06T18:20:15.303Z,19.40
2018-09-06T18:23:17.726Z,19.32
2018-09-06T18:26:20.752Z,19.21
2018-09-06T18:29:23.114Z,19.14
2018-09-06T18:32:25.564Z,19.11
2018-09-06T18:35:27.842Z,19.09
2018-09-06T18:38:30.056Z,19.09
2018-09-06T18:41:32.451Z,19.10
2018-09-06T18:44:38.289Z,19.15
2018-09-06T18:47:41.672Z,19.13
2018-09-06T18:50:44.100Z,19.14
2018-09-06T18:53:46.344Z,19.10
2018-09-06T18:56:48.801Z,18.98
2018-09-06T18:59:51.170Z,18.87
2018-09-06T19:02:53.736Z,18.75
2018-09-06T19:05:56.008Z,18.65
2018-09-06T19:08:58.254Z,18.58
2018-09-06T19:12:00.540Z,18.55
2018-09-06T19:15:02.976Z,18.49
2018-09-06T19:18:05.342Z,18.45
2018-09-06T19:21:07.895Z,18.48
2018-09-06T19:24:10.298Z,18.50
2018-09-06T19:27:12.711Z,18.51
2018-09-06T19:30:15.087Z,18.57
2018-09-06T19:33:17.357Z,18.50
2018-09-06T19:36:19.872Z,18.43
2018-09-06T19:39:22.362Z,18.37
2018-09-06T19:42:24.849Z,18.31
2018-09-06T19:45:27.210Z,18.26
2018-09-06T19:48:29.561Z,18.22
2018-09-06T19:51:31.793Z,18.19
2018-09-06T19:54:34.054Z,18.15
2018-09-06T19:57:36.507Z,18.15
2018-09-06T20:00:38.823Z,18.12
2018-09-06T20:03:41.085Z,18.06
2018-09-06T20:06:43.320Z,17.94
2018-09-06T20:09:45.685Z,17.83
2018-09-06T20:12:48.792Z,17.78
2018-09-06T20:15:51.092Z,17.70
2018-09-06T20:18:53.388Z,17.67
2018-09-06T20:21:55.645Z,17.56
2018-09-06T20:24:57.984Z,17.50
2018-09-06T20:28:00.302Z,17.47
2018-09-06T20:31:02.526Z,17.44
2018-09-06T20:34:04.760Z,17.43
2018-09-06T20:37:07.030Z,17.51
2018-09-06T20:40:09.300Z,17.57
2018-09-06T20:43:11.616Z,17.59
2018-09-06T20:46:13.832Z,17.73
2018-09-06T20:49:16.104Z,17.78
2018-09-06T20:52:18.417Z,17.79
2018-09-06T20:55:20.765Z,17.76
2018-09-06T20:58:22.971Z,17.74
2018-09-06T21:01:25.262Z,17.75
2018-09-06T21:04:27.460Z,17.73
2018-09-06T21:07:29.721Z,17.72
2018-09-06T21:10:32.077Z,17.70
2018-09-06T21:13:34.332Z,17.68
2018-09-06T21:16:36.629Z,17.65
2018-09-06T21:19:38.943Z,17.59
2018-09-06T21:22:41.228Z,17.52
2018-09-06T21:25:43.603Z,17.48
2018-09-06T21:28:45.980Z,17.51
2018-09-06T21:31:48.327Z,17.56
2018-09-06T21:34:50.785Z,17.50
2018-09-06T21:37:53.250Z,17.40
2018-09-06T21:40:55.609Z,17.19
2018-09-06T21:43:57.968Z,17.13
2018-09-06T21:47:00.334Z,17.04
2018-09-06T21:50:02.734Z,16.95
2018-09-06T21:53:05.080Z,16.79
2018-09-06T21:56:07.394Z,16.72
2018-09-06T21:59:09.635Z,16.63
2018-09-06T22:02:17.733Z,16.60
2018-09-06T22:05:20.041Z,16.63
2018-09-06T22:08:22.280Z,16.76
2018-09-06T22:11:24.546Z,16.91
2018-09-06T22:14:26.890Z,17.10
2018-09-06T22:17:29.096Z,17.19
2018-09-06T22:20:31.473Z,17.24
2018-09-06T22:23:33.864Z,17.11
2018-09-06T22:26:36.152Z,17.07
2018-09-06T22:29:38.592Z,16.96
2018-09-06T22:32:41.047Z,16.85
2018-09-06T22:35:43.300Z,16.83
2018-09-06T22:38:45.563Z,16.84
2018-09-06T22:41:47.809Z,16.91
2018-09-06T22:44:50.136Z,17.07
2018-09-06T22:47:52.402Z,17.20
2018-09-06T22:50:54.704Z,17.28
2018-09-06T22:53:56.997Z,17.36
2018-09-06T22:56:59.372Z,17.41
2018-09-06T23:00:01.936Z,17.42
2018-09-06T23:03:09.901Z,17.28
2018-09-06T23:06:12.302Z,17.20
2018-09-06T23:09:14.665Z,17.01
2018-09-06T23:12:16.938Z,16.82
2018-09-06T23:15:19.272Z,16.70
2018-09-06T23:18:21.519Z,16.52
2018-09-06T23:21:23.856Z,16.39
2018-09-06T23:24:26.249Z,16.48
2018-09-06T23:27:28.547Z,16.41
2018-09-06T23:30:30.788Z,16.30
2018-09-06T23:33:33.145Z,16.08
2018-09-06T23:36:35.433Z,15.91
2018-09-06T23:39:37.704Z,15.81
2018-09-06T23:42:40.075Z,15.67
2018-09-06T23:45:42.430Z,15.63
2018-09-06T23:48:44.744Z,15.51
2018-09-06T23:51:47.194Z,15.33
2018-09-06T23:54:49.862Z,15.21
2018-09-06T23:57:52.094Z,15.17
